createdAt,value
2022-10-01T00:02:07.731Z,5.55
2022-10-01T00:04:38.215Z,7.07
2022-10-01T00:07:09.501Z,5.60
2022-10-01T00:09:37.018Z,6.75
2022-10-01T00:12:04.130Z,6.57
2022-10-01T00:14:31.176Z,5.88
2022-10-01T00:16:58.312Z,4.72
2022-10-01T00:19:25.437Z,6.53
2022-10-01T00:21:52.435Z,6.47
2022-10-01T00:24:19.491Z,5.75
2022-10-01T00:26:47.643Z,7.38
2022-10-01T00:29:15.678Z,10.13
2022-10-01T00:31:43.476Z,6.85
2022-10-01T00:34:15.007Z,6.65
2022-10-01T00:36:42.387Z,5.80
2022-10-01T00:39:12.742Z,8.57
2022-10-01T00:41:40.543Z,6.60
2022-10-01T00:44:28.171Z,5.60
2022-10-01T00:47:17.777Z,6.80
2022-10-01T00:49:47.195Z,7.13
2022-10-01T00:52:24.742Z,6.10
2022-10-01T00:55:15.593Z,7.10
2022-10-01T00:57:45.440Z,7.68
2022-10-01T01:00:14.917Z,7.13
2022-10-01T01:02:42.231Z,7.25
2022-10-01T01:05:13.643Z,6.32
2022-10-01T01:07:48.833Z,6.82
2022-10-01T01:10:29.812Z,7.38
2022-10-01T01:13:21.726Z,6.90
2022-10-01T01:16:08.064Z,8.98
2022-10-01T01:18:54.468Z,7.63
2022-10-01T01:21:31.193Z,6.35
2022-10-01T01:24:23.353Z,6.07
2022-10-01T01:27:25.547Z,9.55
2022-10-01T01:30:17.921Z,6.95
2022-10-01T01:33:03.172Z,6.53
2022-10-01T01:36:04.561Z,8.52
2022-10-01T01:38:40.439Z,8.82
2022-10-01T01:41:11.143Z,6.88
2022-10-01T01:43:45.430Z,7.35
2022-10-01T01:46:18.343Z,7.55
2022-10-01T01:48:51.104Z,7.15
2022-10-01T01:51:31.600Z,8.88
2022-10-01T01:54:00.194Z,5.72
2022-10-01T01:56:27.585Z,5.80
2022-10-01T01:58:54.689Z,8.00
2022-10-01T02:01:40.043Z,5.85
2022-10-01T02:04:42.829Z,6.50
2022-10-01T02:07:25.041Z,5.05
2022-10-01T02:10:23.881Z,5.15
2022-10-01T02:13:12.580Z,5.35
2022-10-01T02:16:21.021Z,5.70
2022-10-01T02:18:50.730Z,5.03
2022-10-01T02:21:48.006Z,5.93
2022-10-01T02:24:39.052Z,3.85
2022-10-01T02:27:18.467Z,4.80
2022-10-01T02:29:46.392Z,4.28
2022-10-01T02:32:17.262Z,4.00
2022-10-01T02:34:49.397Z,4.78
2022-10-01T02:37:24.682Z,5.07
2022-10-01T02:39:57.371Z,4.65
2022-10-01T02:42:29.593Z,4.15
2022-10-01T02:45:02.552Z,5.53
2022-10-01T02:47:39.352Z,3.88
2022-10-01T02:50:08.771Z,4.10
2022-10-01T02:52:49.070Z,3.65
2022-10-01T02:55:30.621Z,5.35
2022-10-01T02:57:58.447Z,6.55
2022-10-01T03:00:27.137Z,3.38
2022-10-01T03:02:54.783Z,2.60
2022-10-01T03:05:22.300Z,3.40
2022-10-01T03:07:49.706Z,3.90
2022-10-01T03:10:17.025Z,3.72
2022-10-01T03:12:47.899Z,2.75
2022-10-01T03:15:19.343Z,2.95
2022-10-01T03:17:51.049Z,2.25
2022-10-01T03:20:18.468Z,4.07
2022-10-01T03:22:47.297Z,2.13
2022-10-01T03:25:16.011Z,3.08
2022-10-01T03:27:43.477Z,3.88
2022-10-01T03:30:11.332Z,1.70
2022-10-01T03:32:38.772Z,1.92
2022-10-01T03:35:06.377Z,1.80
2022-10-01T03:37:33.290Z,2.42
2022-10-01T03:40:00.233Z,1.65
2022-10-01T03:42:27.249Z,3.28
2022-10-01T03:44:54.126Z,2.95
2022-10-01T03:47:24.418Z,4.38
2022-10-01T03:49:51.477Z,1.98
2022-10-01T03:52:19.074Z,1.23
2022-10-01T03:54:46.036Z,4.30
2022-10-01T03:57:13.129Z,1.88
2022-10-01T03:59:40.036Z,1.65
2022-10-01T04:02:07.662Z,2.35
2022-10-01T04:04:34.776Z,1.10
2022-10-01T04:07:01.776Z,1.45
2022-10-01T04:09:28.830Z,1.83
2022-10-01T04:11:56.092Z,1.40
2022-10-01T04:14:23.052Z,3.63
2022-10-01T04:16:52.444Z,1.55
2022-10-01T04:19:20.191Z,1.23
2022-10-01T04:21:47.999Z,1.17
2022-10-01T04:24:14.994Z,1.30
2022-10-01T04:26:42.019Z,0.70
2022-10-01T04:29:09.648Z,1.85
2022-10-01T04:31:37.167Z,0.70
2022-10-01T04:34:05.634Z,1.30
2022-10-01T04:36:32.658Z,1.38
2022-10-01T04:39:02.360Z,0.68
2022-10-01T04:41:33.647Z,1.77
2022-10-01T04:44:01.151Z,0.68
2022-10-01T04:46:31.313Z,0.93
2022-10-01T04:48:58.421Z,0.70
2022-10-01T04:51:25.904Z,0.82
2022-10-01T04:53:53.042Z,0.60
2022-10-01T04:56:19.978Z,0.82
2022-10-01T04:58:48.197Z,0.65
2022-10-01T05:01:15.189Z,3.72
2022-10-01T05:03:42.243Z,0.47
2022-10-01T05:06:09.325Z,0.60
2022-10-01T05:08:37.546Z,1.65
2022-10-01T05:11:05.743Z,1.05
2022-10-01T05:13:34.728Z,0.88
2022-10-01T05:16:03.705Z,1.70
2022-10-01T05:18:30.830Z,0.40
2022-10-01T05:20:57.889Z,0.55
2022-10-01T05:23:25.157Z,1.00
2022-10-01T05:25:52.272Z,0.60
2022-10-01T05:28:22.460Z,1.50
2022-10-01T05:30:51.212Z,0.50
2022-10-01T05:33:18.410Z,1.20
2022-10-01T05:35:45.463Z,0.77
2022-10-01T05:38:12.590Z,0.47
2022-10-01T05:40:39.673Z,0.60
2022-10-01T05:43:06.696Z,0.70
2022-10-01T05:45:33.843Z,0.90
2022-10-01T05:48:04.759Z,2.65
2022-10-01T05:50:35.276Z,2.30
2022-10-01T05:53:02.798Z,0.95
2022-10-01T05:55:34.877Z,2.05
2022-10-01T05:58:06.291Z,1.85
2022-10-01T06:00:35.059Z,2.30
2022-10-01T06:03:05.229Z,3.58
2022-10-01T06:05:34.917Z,4.55
2022-10-01T06:08:06.112Z,2.45
2022-10-01T06:10:33.194Z,2.08
2022-10-01T06:13:05.747Z,2.50
2022-10-01T06:15:37.773Z,1.63
2022-10-01T06:18:08.827Z,2.50
2022-10-01T06:20:36.699Z,2.53
2022-10-01T06:23:07.398Z,1.52
2022-10-01T06:25:36.404Z,2.25
2022-10-01T06:28:05.927Z,1.50
2022-10-01T06:30:36.873Z,1.92
2022-10-01T06:33:10.874Z,5.00
2022-10-01T06:35:49.818Z,3.67
2022-10-01T06:38:20.240Z,4.18
2022-10-01T06:40:59.908Z,2.75
2022-10-01T06:43:30.064Z,6.30
2022-10-01T06:46:03.031Z,2.00
2022-10-01T06:48:31.295Z,2.13
2022-10-01T06:50:59.441Z,3.58
2022-10-01T06:53:28.639Z,2.42
2022-10-01T06:55:56.134Z,2.13
2022-10-01T06:58:27.930Z,3.47
2022-10-01T07:01:01.344Z,2.80
2022-10-01T07:03:29.806Z,2.67
2022-10-01T07:06:05.278Z,7.05
2022-10-01T07:08:33.423Z,3.67
2022-10-01T07:11:02.825Z,2.58
2022-10-01T07:13:30.735Z,3.22
2022-10-01T07:15:58.080Z,5.45
2022-10-01T07:18:25.890Z,3.30
2022-10-01T07:20:53.279Z,2.40
2022-10-01T07:23:20.348Z,3.47
2022-10-01T07:25:47.355Z,3.20
2022-10-01T07:28:19.994Z,6.05
2022-10-01T07:31:01.805Z,3.85
2022-10-01T07:33:30.099Z,3.42
2022-10-01T07:36:01.420Z,4.18
2022-10-01T07:38:30.302Z,3.78
2022-10-01T07:40:58.969Z,4.60
2022-10-01T07:43:26.136Z,6.72
2022-10-01T07:45:55.189Z,3.00
2022-10-01T07:48:22.352Z,3.90
2022-10-01T07:50:51.166Z,4.32
2022-10-01T07:53:20.572Z,4.22
2022-10-01T07:55:47.761Z,6.20
2022-10-01T07:58:14.879Z,3.83
2022-10-01T08:00:43.408Z,3.70
2022-10-01T08:03:13.610Z,7.75
2022-10-01T08:05:42.473Z,5.32
2022-10-01T08:08:09.850Z,4.57
2022-10-01T08:10:38.834Z,5.53
2022-10-01T08:13:14.437Z,7.13
2022-10-01T08:15:48.040Z,7.88
2022-10-01T08:18:15.073Z,10.18
2022-10-01T08:20:42.496Z,6.40
2022-10-01T08:23:13.061Z,5.68
2022-10-01T08:25:41.768Z,6.63
2022-10-01T08:28:11.185Z,4.97
2022-10-01T08:30:40.732Z,9.68
2022-10-01T08:33:11.874Z,6.03
2022-10-01T08:35:43.676Z,5.80
2022-10-01T08:38:12.333Z,5.88
2022-10-01T08:40:51.113Z,7.05
2022-10-01T08:43:30.789Z,6.78
2022-10-01T08:46:06.714Z,8.73
2022-10-01T08:48:56.831Z,5.88
2022-10-01T08:51:39.054Z,7.07
2022-10-01T08:54:48.094Z,4.25
2022-10-01T08:57:22.972Z,3.67
2022-10-01T08:59:55.697Z,5.18
2022-10-01T09:02:25.850Z,4.60
2022-10-01T09:05:03.977Z,4.97
2022-10-01T09:08:15.284Z,4.10
2022-10-01T09:11:00.776Z,6.07
2022-10-01T09:14:02.831Z,8.18
2022-10-01T09:17:00.970Z,5.95
2022-10-01T09:20:11.900Z,9.18
2022-10-01T09:23:02.344Z,5.80
2022-10-01T09:25:34.547Z,6.68
2022-10-01T09:28:22.124Z,6.90
2022-10-01T09:30:57.403Z,7.93
2022-10-01T09:33:33.292Z,7.57
2022-10-01T09:36:36.415Z,7.28
2022-10-01T09:39:29.795Z,9.23
2022-10-01T09:41:56.908Z,8.77
2022-10-01T09:44:31.072Z,8.43
2022-10-01T09:46:58.876Z,6.15
2022-10-01T09:49:33.813Z,6.47
2022-10-01T09:52:10.587Z,5.38
2022-10-01T09:54:47.632Z,7.78
2022-10-01T09:57:28.457Z,6.10
2022-10-01T10:00:11.959Z,7.18
2022-10-01T10:02:43.448Z,6.23
2022-10-01T10:05:28.079Z,7.38
2022-10-01T10:08:15.567Z,7.07
2022-10-01T10:11:06.618Z,10.05
2022-10-01T10:13:54.304Z,11.55
2022-10-01T10:16:31.991Z,7.78
2022-10-01T10:19:06.905Z,6.55
2022-10-01T10:21:36.563Z,7.60
2022-10-01T10:24:26.700Z,7.18
2022-10-01T10:26:59.240Z,7.47
2022-10-01T10:29:31.527Z,4.93
2022-10-01T10:32:25.137Z,8.60
2022-10-01T10:35:02.104Z,5.65
2022-10-01T10:37:36.802Z,6.63
2022-10-01T10:40:08.430Z,8.57
2022-10-01T10:42:38.742Z,7.25
2022-10-01T10:45:18.115Z,7.13
2022-10-01T10:47:51.453Z,7.60
2022-10-01T10:50:33.644Z,3.33
2022-10-01T10:53:44.003Z,5.53
2022-10-01T10:56:24.703Z,7.70
2022-10-01T10:58:53.886Z,6.75
2022-10-01T11:01:29.588Z,7.30
2022-10-01T11:04:00.333Z,6.53
2022-10-01T11:06:28.572Z,8.02
2022-10-01T11:09:07.195Z,7.40
2022-10-01T11:12:06.084Z,4.78
2022-10-01T11:15:11.124Z,7.20
2022-10-01T11:21:16.566Z,7.30
2022-10-01T11:24:08.853Z,9.75
2022-10-01T11:27:24.334Z,4.80
2022-10-01T11:30:28.636Z,8.18
2022-10-01T11:33:16.942Z,4.77
2022-10-01T11:36:00.833Z,6.03
2022-10-01T11:38:46.264Z,9.63
2022-10-01T11:41:30.867Z,9.93
2022-10-01T11:44:13.732Z,5.50
2022-10-01T11:46:54.226Z,11.68
2022-10-01T11:49:52.198Z,5.15
2022-10-01T11:53:22.630Z,8.13
2022-10-01T11:56:25.040Z,6.82
2022-10-01T11:59:19.267Z,6.65
2022-10-01T12:02:15.318Z,6.20
2022-10-01T12:04:58.145Z,6.85
2022-10-01T12:07:40.125Z,10.95
2022-10-01T12:10:28.932Z,8.73
2022-10-01T12:13:16.501Z,7.63
2022-10-01T12:15:55.875Z,5.97
2022-10-01T12:19:00.172Z,8.52
2022-10-01T12:22:03.733Z,6.72
2022-10-01T12:24:50.295Z,5.65
2022-10-01T12:27:48.042Z,10.23
2022-10-01T12:31:16.836Z,5.93
2022-10-01T12:34:43.051Z,6.82
2022-10-01T12:38:06.369Z,8.88
2022-10-01T12:41:42.975Z,7.90
2022-10-01T12:44:40.331Z,10.38
2022-10-01T12:47:36.377Z,8.30
2022-10-01T12:50:35.704Z,6.13
2022-10-01T12:53:18.236Z,8.40
2022-10-01T12:56:09.510Z,8.00
2022-10-01T12:58:52.244Z,5.32
2022-10-01T13:01:34.797Z,7.28
2022-10-01T13:04:56.611Z,5.38
2022-10-01T13:07:46.751Z,6.05
2022-10-01T13:10:21.669Z,6.20
2022-10-01T13:13:04.299Z,10.05
2022-10-01T13:15:44.040Z,8.75
2022-10-01T13:18:30.495Z,7.05
2022-10-01T13:21:08.879Z,3.75
2022-10-01T13:23:49.071Z,3.80
2022-10-01T13:26:47.123Z,10.88
2022-10-01T13:29:29.887Z,6.30
2022-10-01T13:32:05.808Z,7.60
2022-10-01T13:34:40.319Z,5.85
2022-10-01T13:37:32.114Z,13.77
2022-10-01T13:40:00.919Z,4.70
2022-10-01T13:42:44.192Z,3.95
2022-10-01T13:45:41.494Z,7.18
2022-10-01T13:48:12.917Z,7.13
2022-10-01T13:51:05.069Z,9.10
2022-10-01T13:53:40.956Z,4.10
2022-10-01T13:56:12.913Z,5.03
2022-10-01T13:58:47.192Z,5.78
2022-10-01T14:01:23.635Z,7.25
2022-10-01T14:04:23.649Z,8.27
2022-10-01T14:07:15.879Z,7.28
2022-10-01T14:09:48.605Z,7.35
2022-10-01T14:12:48.038Z,6.57
2022-10-01T14:15:40.432Z,11.07
2022-10-01T14:18:17.898Z,4.85
2022-10-01T14:21:21.427Z,8.00
2022-10-01T14:23:56.929Z,4.53
2022-10-01T14:27:00.698Z,5.53
2022-10-01T14:29:46.489Z,8.70
2022-10-01T14:33:01.829Z,6.65
2022-10-01T14:38:22.478Z,7.07
2022-10-01T14:40:51.779Z,3.15
2022-10-01T14:43:25.734Z,8.68
2022-10-01T14:46:13.215Z,6.07
2022-10-01T14:48:41.943Z,8.05
2022-10-01T14:51:27.932Z,5.68
2022-10-01T14:54:00.209Z,9.25
2022-10-01T14:56:29.361Z,4.38
2022-10-01T14:59:04.138Z,7.57
2022-10-01T15:01:32.249Z,6.32
2022-10-01T15:04:00.674Z,6.65
2022-10-01T15:06:29.939Z,3.80
2022-10-01T15:09:14.999Z,10.13
2022-10-01T15:11:44.831Z,7.38
2022-10-01T15:14:21.269Z,10.20
2022-10-01T15:16:49.724Z,7.82
2022-10-01T15:19:22.965Z,5.47
2022-10-01T15:21:54.708Z,6.57
2022-10-01T15:24:30.213Z,7.93
2022-10-01T15:26:59.633Z,3.45
2022-10-01T15:29:26.799Z,7.10
2022-10-01T15:31:58.329Z,9.07
2022-10-01T15:34:27.788Z,4.65
2022-10-01T15:36:55.701Z,6.55
2022-10-01T15:39:38.379Z,5.93
2022-10-01T15:42:31.347Z,8.90
2022-10-01T15:45:07.227Z,6.20
2022-10-01T15:47:39.323Z,9.20
2022-10-01T15:50:12.593Z,5.57
2022-10-01T15:52:55.887Z,4.73
2022-10-01T15:55:30.518Z,9.13
2022-10-01T15:58:06.820Z,6.78
2022-10-01T16:00:57.558Z,5.93
2022-10-01T16:03:32.525Z,6.03
2022-10-01T16:06:06.262Z,7.38
2022-10-01T16:08:55.708Z,4.68
2022-10-01T16:11:26.444Z,9.73
2022-10-01T16:14:42.260Z,11.60
2022-10-01T16:17:18.045Z,6.47
2022-10-01T16:19:52.207Z,8.50
2022-10-01T16:22:38.469Z,7.22
2022-10-01T16:25:26.761Z,5.15
2022-10-01T16:28:35.404Z,9.07
2022-10-01T16:31:07.148Z,14.88
2022-10-01T16:33:38.296Z,9.63
2022-10-01T16:36:24.010Z,12.20
2022-10-01T16:38:51.316Z,9.15
2022-10-01T16:41:24.606Z,10.80
2022-10-01T16:43:57.035Z,11.43
2022-10-01T16:46:24.464Z,6.85
2022-10-01T16:48:52.032Z,6.50
2022-10-01T16:51:20.556Z,12.05
2022-10-01T16:53:51.181Z,10.68
2022-10-01T16:56:26.959Z,9.93
2022-10-01T16:58:54.607Z,13.33
2022-10-01T17:01:21.827Z,9.85
2022-10-01T17:03:49.020Z,5.88
2022-10-01T17:06:16.047Z,10.93
2022-10-01T17:08:43.119Z,11.30
2022-10-01T17:11:12.788Z,10.07
2022-10-01T17:13:39.964Z,10.00
2022-10-01T17:16:07.235Z,8.18
2022-10-01T17:18:34.243Z,9.00
2022-10-01T17:21:05.590Z,8.18
2022-10-01T17:23:34.873Z,13.40
2022-10-01T17:26:05.685Z,8.60
2022-10-01T17:28:35.435Z,9.85
2022-10-01T17:31:07.294Z,9.82
2022-10-01T17:33:34.491Z,14.25
2022-10-01T17:36:08.085Z,10.35
2022-10-01T17:38:35.416Z,11.68
2022-10-01T17:41:03.747Z,9.65
2022-10-01T17:43:30.887Z,7.63
2022-10-01T17:46:00.954Z,12.02
2022-10-01T17:48:29.931Z,9.90
2022-10-01T17:51:06.560Z,10.55
2022-10-01T17:53:41.365Z,8.75
2022-10-01T17:56:15.984Z,7.15
2022-10-01T17:58:45.626Z,10.95
2022-10-01T18:01:20.260Z,10.15
2022-10-01T18:03:51.978Z,9.65
2022-10-01T18:06:18.975Z,13.35
2022-10-01T18:08:58.967Z,11.35
2022-10-01T18:11:28.232Z,9.20
2022-10-01T18:13:57.402Z,9.07
2022-10-01T18:16:26.006Z,9.10
2022-10-01T18:21:47.284Z,11.23
2022-10-01T18:24:16.016Z,8.57
2022-10-01T18:26:44.636Z,11.00
2022-10-01T18:29:25.725Z,8.82
2022-10-01T18:32:01.485Z,9.20
2022-10-01T18:34:39.632Z,13.55
2022-10-01T18:37:27.339Z,12.60
2022-10-01T18:40:25.591Z,11.52
2022-10-01T18:43:22.105Z,7.70
2022-10-01T18:46:18.364Z,8.60
2022-10-01T18:49:12.339Z,8.95
2022-10-01T18:52:00.539Z,10.18
2022-10-01T18:54:46.694Z,7.28
2022-10-01T18:57:44.858Z,11.23
2022-10-01T19:00:21.355Z,7.85
2022-10-01T19:03:19.221Z,12.48
2022-10-01T19:06:04.835Z,9.98
2022-10-01T19:09:53.773Z,12.60
2022-10-01T19:13:05.628Z,10.30
2022-10-01T19:15:35.456Z,14.10
2022-10-01T19:18:28.519Z,10.82
2022-10-01T19:21:38.062Z,13.77
2022-10-01T19:24:15.215Z,12.10
2022-10-01T19:26:57.709Z,10.85
2022-10-01T19:29:33.885Z,15.45
2022-10-01T19:32:21.681Z,8.70
2022-10-01T19:35:04.791Z,13.30
2022-10-01T19:37:46.951Z,11.45
2022-10-01T19:40:48.358Z,13.75
2022-10-01T19:43:42.142Z,14.27
2022-10-01T19:46:45.847Z,12.85
2022-10-01T19:49:42.412Z,13.77
2022-10-01T19:52:18.272Z,12.43
2022-10-01T19:55:00.847Z,12.73
2022-10-01T19:57:29.674Z,11.43
2022-10-01T20:00:07.531Z,16.60
2022-10-01T20:02:45.167Z,8.80
2022-10-01T20:05:25.164Z,16.80
2022-10-01T20:08:02.915Z,11.32
2022-10-01T20:10:42.744Z,11.30
2022-10-01T20:13:26.842Z,12.63
2022-10-01T20:16:23.255Z,13.20
2022-10-01T20:19:04.908Z,8.77
2022-10-01T20:21:44.028Z,14.35
2022-10-01T20:24:39.893Z,10.57
2022-10-01T20:27:48.424Z,11.20
2022-10-01T20:30:21.666Z,12.68
2022-10-01T20:33:23.989Z,14.75
2022-10-01T20:36:07.947Z,12.80
2022-10-01T20:38:56.214Z,10.57
2022-10-01T20:41:30.031Z,10.80
2022-10-01T20:44:01.604Z,10.77
2022-10-01T20:46:47.220Z,20.65
2022-10-01T20:49:38.191Z,10.40
2022-10-01T20:52:31.020Z,12.80
2022-10-01T20:55:18.112Z,11.25
2022-10-01T20:57:55.705Z,15.05
2022-10-01T21:00:27.249Z,13.65
2022-10-01T21:03:25.576Z,14.00
2022-10-01T21:06:26.593Z,13.07
2022-10-01T21:09:03.243Z,10.18
2022-10-01T21:11:39.728Z,13.15
2022-10-01T21:14:15.908Z,12.07
2022-10-01T21:17:22.576Z,16.23
2022-10-01T21:20:08.318Z,14.85
2022-10-01T21:23:06.666Z,12.15
2022-10-01T21:26:39.492Z,11.02
2022-10-01T21:29:34.067Z,11.82
2022-10-01T21:32:25.827Z,10.38
2022-10-01T21:35:21.463Z,13.02
2022-10-01T21:38:33.332Z,11.45
2022-10-01T21:41:24.877Z,20.42
2022-10-01T21:44:32.293Z,16.20
2022-10-01T21:47:12.376Z,13.48
2022-10-01T21:50:01.128Z,13.27
2022-10-01T21:53:10.083Z,21.30
2022-10-01T21:56:23.635Z,15.70
2022-10-01T21:59:20.271Z,13.07
2022-10-01T22:02:26.702Z,17.65
2022-10-01T22:05:03.976Z,14.23
2022-10-01T22:07:50.818Z,15.57
2022-10-01T22:10:34.148Z,17.75
2022-10-01T22:13:11.275Z,12.60
2022-10-01T22:15:44.712Z,16.20
2022-10-01T22:18:42.926Z,14.53
2022-10-01T22:21:22.860Z,13.05
2022-10-01T22:24:02.512Z,12.20
2022-10-01T22:26:37.256Z,12.88
2022-10-01T22:29:14.732Z,12.43
2022-10-01T22:31:45.116Z,14.38
2022-10-01T22:34:22.364Z,13.68
2022-10-01T22:36:58.616Z,15.15
2022-10-01T22:39:35.591Z,20.38
2022-10-01T22:42:16.160Z,15.88
2022-10-01T22:44:43.808Z,14.95
2022-10-01T22:47:34.643Z,17.13
2022-10-01T22:50:28.196Z,22.23
2022-10-01T22:53:08.793Z,12.57
2022-10-01T22:55:48.208Z,16.95
2022-10-01T22:58:30.371Z,14.38
2022-10-01T23:01:16.342Z,18.90
2022-10-01T23:04:00.048Z,19.25
2022-10-01T23:06:57.574Z,16.67
2022-10-01T23:09:43.475Z,16.05
2022-10-01T23:12:24.788Z,16.58
2022-10-01T23:15:17.473Z,11.77
2022-10-01T23:18:13.359Z,15.23
2022-10-01T23:21:09.879Z,15.52
2022-10-01T23:23:37.081Z,17.65
2022-10-01T23:26:51.103Z,17.17
2022-10-01T23:29:44.318Z,20.00
2022-10-01T23:32:37.337Z,17.05
2022-10-01T23:35:26.601Z,18.15
2022-10-01T23:38:27.721Z,18.10
2022-10-01T23:41:02.020Z,20.92
2022-10-01T23:43:49.284Z,19.13
2022-10-01T23:46:30.200Z,17.80
2022-10-01T23:49:17.029Z,14.63
2022-10-01T23:52:09.871Z,18.30
2022-10-01T23:54:44.143Z,17.35
2022-10-01T23:57:28.967Z,20.55
